createdAt,value
2022-10-12T00:00:01.791Z,79.00
2022-10-12T00:01:01.488Z,78.00
2022-10-12T00:02:02.746Z,77.00
2022-10-12T00:03:02.358Z,78.00
2022-10-12T00:04:02.125Z,78.00
2022-10-12T00:05:02.739Z,77.00
2022-10-12T00:06:02.320Z,77.00
2022-10-12T00:07:02.858Z,77.00
2022-10-12T00:08:02.278Z,77.00
2022-10-12T00:09:02.769Z,77.00
2022-10-12T00:10:02.663Z,77.00
2022-10-12T00:11:02.521Z,77.00
2022-10-12T00:12:02.618Z,77.00
2022-10-12T00:13:02.954Z,77.00
2022-10-12T00:14:02.410Z,76.00
2022-10-12T00:15:02.699Z,76.00
2022-10-12T00:16:02.479Z,76.00
2022-10-12T00:17:02.659Z,77.00
2022-10-12T00:18:02.643Z,77.00
2022-10-12T00:19:02.437Z,76.00
2022-10-12T00:20:02.712Z,76.00
2022-10-12T00:21:02.641Z,76.00
2022-10-12T00:22:02.305Z,76.00
2022-10-12T00:23:02.395Z,75.00
2022-10-12T00:24:02.890Z,76.00
2022-10-12T00:25:02.416Z,74.00
2022-10-12T00:26:02.891Z,74.00
2022-10-12T00:27:02.438Z,75.00
2022-10-12T00:28:02.586Z,75.00
2022-10-12T00:29:02.466Z,75.00
2022-10-12T00:30:02.441Z,76.00
2022-10-12T00:31:02.952Z,76.00
2022-10-12T00:32:01.640Z,74.00
2022-10-12T00:33:02.087Z,75.00
2022-10-12T00:34:01.829Z,76.00
2022-10-12T00:35:01.608Z,76.00
2022-10-12T00:36:01.790Z,76.00
2022-10-12T00:37:01.706Z,76.00
2022-10-12T00:38:01.836Z,75.00
2022-10-12T00:39:01.910Z,76.00
2022-10-12T00:40:01.655Z,76.00
2022-10-12T00:41:01.874Z,76.00
2022-10-12T00:42:01.884Z,76.00
2022-10-12T00:43:01.746Z,77.00
2022-10-12T00:44:02.016Z,77.00
2022-10-12T00:45:01.837Z,77.00
2022-10-12T00:46:01.713Z,77.00
2022-10-12T00:47:02.328Z,77.00
2022-10-12T00:48:02.750Z,76.00
2022-10-12T00:49:02.798Z,76.00
2022-10-12T00:50:02.584Z,75.00
2022-10-12T00:51:02.307Z,75.00
2022-10-12T00:52:01.822Z,75.00
2022-10-12T00:53:02.407Z,75.00
2022-10-12T00:54:01.950Z,75.00
2022-10-12T00:55:01.811Z,75.00
2022-10-12T00:56:01.895Z,75.00
2022-10-12T00:57:02.389Z,75.00
2022-10-12T00:58:02.789Z,75.00
2022-10-12T00:59:02.529Z,75.00
2022-10-12T01:00:02.722Z,75.00
2022-10-12T01:01:02.639Z,75.00
2022-10-12T01:02:02.534Z,76.00
2022-10-12T01:03:03.034Z,75.00
2022-10-12T01:04:02.493Z,74.00
2022-10-12T01:05:02.799Z,76.00
2022-10-12T01:06:02.695Z,76.00
2022-10-12T01:07:01.776Z,77.00
2022-10-12T01:08:02.047Z,77.00
2022-10-12T01:09:01.824Z,77.00
2022-10-12T01:10:01.858Z,76.00
2022-10-12T01:11:01.916Z,77.00
2022-10-12T01:12:02.279Z,78.00
2022-10-12T01:13:01.674Z,78.00
2022-10-12T01:14:01.893Z,77.00
2022-10-12T01:15:01.742Z,77.00
2022-10-12T01:16:02.016Z,77.00
2022-10-12T01:17:02.340Z,77.00
2022-10-12T01:18:01.926Z,77.00
2022-10-12T01:19:02.313Z,77.00
2022-10-12T01:20:02.095Z,78.00
2022-10-12T01:21:02.180Z,77.00
2022-10-12T01:22:01.989Z,77.00
2022-10-12T01:23:02.277Z,77.00
2022-10-12T01:24:01.922Z,76.00
2022-10-12T01:25:01.871Z,76.00
2022-10-12T01:26:02.182Z,75.00
2022-10-12T01:27:01.937Z,75.00
2022-10-12T01:28:02.229Z,76.00
2022-10-12T01:29:02.014Z,77.00
2022-10-12T01:30:02.517Z,77.00
2022-10-12T01:31:02.429Z,77.00
2022-10-12T01:32:02.218Z,78.00
2022-10-12T01:33:02.575Z,79.00
2022-10-12T01:34:02.565Z,79.00
2022-10-12T01:35:02.107Z,79.00
2022-10-12T01:36:02.736Z,79.00
2022-10-12T01:37:02.182Z,79.00
2022-10-12T01:38:01.978Z,79.00
2022-10-12T01:39:02.346Z,79.00
2022-10-12T01:40:01.881Z,79.00
2022-10-12T01:41:02.199Z,79.00
2022-10-12T01:42:01.885Z,79.00
2022-10-12T01:43:02.336Z,79.00
2022-10-12T01:44:02.268Z,79.00
2022-10-12T01:45:01.805Z,79.00
2022-10-12T01:46:02.195Z,79.00
2022-10-12T01:47:01.982Z,78.00
2022-10-12T01:48:02.477Z,78.00
2022-10-12T01:49:01.935Z,78.00
2022-10-12T01:50:02.344Z,78.00
2022-10-12T01:51:01.977Z,77.00
2022-10-12T01:52:02.492Z,77.00
2022-10-12T01:53:02.777Z,76.00
2022-10-12T01:54:02.916Z,76.00
2022-10-12T01:55:02.741Z,76.00
2022-10-12T01:56:02.380Z,77.00
2022-10-12T01:57:02.113Z,77.00
2022-10-12T01:58:02.305Z,77.00
2022-10-12T01:59:02.068Z,76.00
2022-10-12T02:00:01.763Z,76.00
2022-10-12T02:01:02.364Z,77.00
2022-10-12T02:02:02.182Z,78.00
2022-10-12T02:03:01.752Z,79.00
2022-10-12T02:04:01.890Z,78.00
2022-10-12T02:05:02.271Z,77.00
2022-10-12T02:06:01.954Z,77.00
2022-10-12T02:07:02.284Z,78.00
2022-10-12T02:08:02.860Z,79.00
2022-10-12T02:09:02.591Z,79.00
2022-10-12T02:10:02.677Z,78.00
2022-10-12T02:11:02.393Z,77.00
2022-10-12T02:12:02.395Z,77.00
2022-10-12T02:13:02.773Z,77.00
2022-10-12T02:14:02.398Z,78.00
2022-10-12T02:15:02.432Z,77.00
2022-10-12T02:16:02.709Z,77.00
2022-10-12T02:17:02.124Z,76.00
2022-10-12T02:18:02.556Z,76.00
2022-10-12T02:19:02.232Z,76.00
2022-10-12T02:20:02.520Z,77.00
2022-10-12T02:21:02.329Z,78.00
2022-10-12T02:22:01.803Z,79.00
2022-10-12T02:23:01.630Z,79.00
2022-10-12T02:24:01.734Z,79.00
2022-10-12T02:25:01.828Z,79.00
2022-10-12T02:26:01.494Z,79.00
2022-10-12T02:27:01.845Z,78.00
2022-10-12T02:28:01.584Z,78.00
2022-10-12T02:29:01.875Z,78.00
2022-10-12T02:30:02.240Z,77.00
2022-10-12T02:31:01.657Z,77.00
2022-10-12T02:32:02.012Z,77.00
2022-10-12T02:33:02.005Z,77.00
2022-10-12T02:34:02.323Z,76.00
2022-10-12T02:35:01.971Z,76.00
2022-10-12T02:36:02.284Z,76.00
2022-10-12T02:37:01.945Z,76.00
2022-10-12T02:38:01.690Z,76.00
2022-10-12T02:39:01.681Z,75.00
2022-10-12T02:40:01.560Z,76.00
2022-10-12T02:41:01.895Z,76.00
2022-10-12T02:42:02.509Z,76.00
2022-10-12T02:43:11.195Z,76.00
2022-10-12T02:44:02.362Z,76.00
2022-10-12T02:45:02.433Z,76.00
2022-10-12T02:46:02.059Z,76.00
2022-10-12T02:47:02.245Z,76.00
2022-10-12T02:48:02.074Z,76.00
2022-10-12T02:49:02.555Z,76.00
2022-10-12T02:50:02.324Z,76.00
2022-10-12T02:51:02.271Z,77.00
2022-10-12T02:52:02.601Z,78.00
2022-10-12T02:53:02.582Z,78.00
2022-10-12T02:54:02.375Z,78.00
2022-10-12T02:55:02.912Z,77.00
2022-10-12T02:56:02.846Z,77.00
2022-10-12T02:57:02.137Z,77.00
2022-10-12T02:58:02.145Z,77.00
2022-10-12T02:59:02.487Z,78.00
2022-10-12T03:00:01.961Z,79.00
2022-10-12T03:01:02.500Z,80.00
2022-10-12T03:02:02.607Z,80.00
2022-10-12T03:03:02.747Z,79.00
2022-10-12T03:04:02.474Z,79.00
2022-10-12T03:05:02.799Z,80.00
2022-10-12T03:06:02.521Z,80.00
2022-10-12T03:07:02.911Z,80.00
2022-10-12T03:08:02.917Z,80.00
2022-10-12T03:09:02.413Z,80.00
2022-10-12T03:10:02.480Z,80.00
2022-10-12T03:11:02.895Z,80.00
2022-10-12T03:12:01.866Z,80.00
2022-10-12T03:13:01.758Z,80.00
2022-10-12T03:14:02.272Z,80.00
2022-10-12T03:15:02.134Z,81.00
2022-10-12T03:16:01.793Z,82.00
2022-10-12T03:17:01.953Z,82.00
2022-10-12T03:18:02.336Z,81.00
2022-10-12T03:19:02.349Z,82.00
2022-10-12T03:20:01.792Z,82.00
2022-10-12T03:21:01.667Z,82.00
2022-10-12T03:22:02.733Z,82.00
2022-10-12T03:23:02.307Z,82.00
2022-10-12T03:24:02.732Z,81.00
2022-10-12T03:25:02.361Z,82.00
2022-10-12T03:26:02.814Z,82.00
2022-10-12T03:27:02.145Z,82.00
2022-10-12T03:28:01.915Z,82.00
2022-10-12T03:29:02.042Z,81.00
2022-10-12T03:30:01.678Z,81.00
2022-10-12T03:31:02.070Z,81.00
2022-10-12T03:32:02.457Z,81.00
2022-10-12T03:33:02.028Z,81.00
2022-10-12T03:34:02.617Z,82.00
2022-10-12T03:35:01.960Z,82.00
2022-10-12T03:36:02.391Z,82.00
2022-10-12T03:37:02.804Z,81.00
2022-10-12T03:38:02.424Z,81.00
2022-10-12T03:39:02.869Z,81.00
2022-10-12T03:40:02.375Z,82.00
2022-10-12T03:41:06.546Z,81.00
2022-10-12T03:42:02.115Z,81.00
2022-10-12T03:43:01.784Z,82.00
2022-10-12T03:44:01.845Z,82.00
2022-10-12T03:45:01.948Z,82.00
2022-10-12T03:46:02.183Z,83.00
2022-10-12T03:47:02.323Z,82.00
2022-10-12T03:48:04.927Z,83.00
2022-10-12T03:49:02.093Z,82.00
2022-10-12T03:50:02.117Z,82.00
2022-10-12T03:51:02.324Z,82.00
2022-10-12T03:52:02.412Z,82.00
2022-10-12T03:53:01.986Z,82.00
2022-10-12T03:54:02.150Z,82.00
2022-10-12T03:55:02.162Z,83.00
2022-10-12T03:56:02.368Z,82.00
2022-10-12T03:57:02.194Z,82.00
2022-10-12T03:58:02.483Z,82.00
2022-10-12T03:59:02.182Z,82.00
2022-10-12T04:00:02.571Z,82.00
2022-10-12T04:01:02.816Z,82.00
2022-10-12T04:02:03.032Z,82.00
2022-10-12T04:03:02.547Z,82.00
2022-10-12T04:04:02.844Z,81.00
2022-10-12T04:05:02.724Z,82.00
2022-10-12T04:06:02.439Z,82.00
2022-10-12T04:07:03.616Z,82.00
2022-10-12T04:08:03.224Z,82.00
2022-10-12T04:09:02.967Z,82.00
2022-10-12T04:10:03.215Z,81.00
2022-10-12T04:11:03.006Z,81.00
2022-10-12T04:12:03.063Z,80.00
2022-10-12T04:13:02.799Z,80.00
2022-10-12T04:14:02.814Z,80.00
2022-10-12T04:15:02.956Z,80.00
2022-10-12T04:16:02.796Z,80.00
2022-10-12T04:17:03.163Z,80.00
2022-10-12T04:18:03.001Z,79.00
2022-10-12T04:19:02.724Z,79.00
2022-10-12T04:20:03.061Z,79.00
2022-10-12T04:21:03.055Z,79.00
2022-10-12T04:22:02.926Z,79.00
2022-10-12T04:23:03.426Z,79.00
2022-10-12T04:24:03.420Z,79.00
2022-10-12T04:25:03.209Z,80.00
2022-10-12T04:26:03.551Z,79.00
2022-10-12T04:27:03.153Z,79.00
2022-10-12T04:28:03.662Z,78.00
2022-10-12T04:29:03.409Z,78.00
2022-10-12T04:30:03.571Z,79.00
2022-10-12T04:31:03.279Z,78.00
2022-10-12T04:32:03.281Z,79.00
2022-10-12T04:33:02.727Z,78.00
2022-10-12T04:34:03.281Z,78.00
2022-10-12T04:35:02.852Z,79.00
2022-10-12T04:36:03.303Z,80.00
2022-10-12T04:37:03.402Z,79.00
2022-10-12T04:38:02.893Z,79.00
2022-10-12T04:39:03.294Z,79.00
2022-10-12T04:40:03.021Z,79.00
2022-10-12T04:41:02.808Z,79.00
2022-10-12T04:42:03.073Z,78.00
2022-10-12T04:43:03.476Z,78.00
2022-10-12T04:44:03.152Z,78.00
2022-10-12T04:45:03.580Z,78.00
2022-10-12T04:46:03.214Z,78.00
2022-10-12T04:47:02.599Z,78.00
2022-10-12T04:48:03.008Z,79.00
2022-10-12T04:49:02.686Z,79.00
2022-10-12T04:50:03.201Z,79.00
2022-10-12T04:51:02.678Z,79.00
2022-10-12T04:52:02.761Z,80.00
2022-10-12T04:53:03.020Z,79.00
2022-10-12T04:54:02.924Z,78.00
2022-10-12T04:55:02.798Z,78.00
2022-10-12T04:56:02.711Z,79.00
2022-10-12T04:57:02.092Z,79.00
2022-10-12T04:58:02.391Z,78.00
2022-10-12T04:59:02.478Z,78.00
2022-10-12T05:00:02.495Z,79.00
2022-10-12T05:01:02.620Z,78.00
2022-10-12T05:02:02.064Z,78.00
2022-10-12T05:03:02.227Z,79.00
2022-10-12T05:04:02.226Z,79.00
2022-10-12T05:05:02.691Z,79.00
2022-10-12T05:06:02.191Z,78.00
2022-10-12T05:07:02.677Z,78.00
2022-10-12T05:08:02.647Z,78.00
2022-10-12T05:09:02.665Z,78.00
2022-10-12T05:10:03.097Z,78.00
2022-10-12T05:11:02.620Z,78.00
2022-10-12T05:12:03.093Z,77.00
2022-10-12T05:13:02.862Z,77.00
2022-10-12T05:14:03.239Z,78.00
2022-10-12T05:15:02.979Z,78.00
2022-10-12T05:16:03.048Z,78.00
2022-10-12T05:17:02.693Z,78.00
2022-10-12T05:18:03.120Z,79.00
2022-10-12T05:19:02.934Z,79.00
2022-10-12T05:20:02.959Z,78.00
2022-10-12T05:21:02.692Z,78.00
2022-10-12T05:22:02.179Z,78.00
2022-10-12T05:23:02.471Z,78.00
2022-10-12T05:24:02.507Z,79.00
2022-10-12T05:25:02.247Z,79.00
2022-10-12T05:26:02.002Z,79.00
2022-10-12T05:27:02.651Z,80.00
2022-10-12T05:28:02.556Z,80.00
2022-10-12T05:29:02.672Z,80.00
2022-10-12T05:30:02.718Z,80.00
2022-10-12T05:31:02.679Z,80.00
2022-10-12T05:32:02.739Z,81.00
2022-10-12T05:33:02.550Z,81.00
2022-10-12T05:34:02.316Z,81.00
2022-10-12T05:35:02.354Z,81.00
2022-10-12T05:36:02.888Z,81.00
2022-10-12T05:37:02.650Z,81.00
2022-10-12T05:38:02.892Z,81.00
2022-10-12T05:39:02.656Z,81.00
2022-10-12T05:40:02.828Z,81.00
2022-10-12T05:41:02.402Z,80.00
2022-10-12T05:42:02.335Z,81.00
2022-10-12T05:43:02.071Z,81.00
2022-10-12T05:44:02.444Z,81.00
2022-10-12T05:45:02.543Z,82.00
2022-10-12T05:46:02.438Z,81.00
2022-10-12T05:47:01.668Z,81.00
2022-10-12T05:48:02.285Z,81.00
2022-10-12T05:49:02.119Z,80.00
2022-10-12T05:50:02.070Z,80.00
2022-10-12T05:51:01.898Z,79.00
2022-10-12T05:52:02.410Z,79.00
2022-10-12T05:53:02.179Z,79.00
2022-10-12T05:54:02.704Z,79.00
2022-10-12T05:55:02.216Z,79.00
2022-10-12T05:56:02.108Z,78.00
2022-10-12T05:57:01.690Z,78.00
2022-10-12T05:58:01.890Z,78.00
2022-10-12T05:59:01.913Z,78.00
2022-10-12T06:00:01.681Z,78.00
2022-10-12T06:01:01.638Z,78.00
2022-10-12T06:02:02.833Z,79.00
2022-10-12T06:03:02.402Z,79.00
2022-10-12T06:04:02.541Z,79.00
2022-10-12T06:05:02.380Z,78.00
2022-10-12T06:06:02.695Z,78.00
2022-10-12T06:07:02.292Z,78.00
2022-10-12T06:08:02.210Z,78.00
2022-10-12T06:09:02.077Z,78.00
2022-10-12T06:10:01.873Z,78.00
2022-10-12T06:11:02.376Z,78.00
2022-10-12T06:12:01.962Z,77.00
2022-10-12T06:13:01.760Z,77.00
2022-10-12T06:14:01.610Z,77.00
2022-10-12T06:15:01.710Z,77.00
2022-10-12T06:16:01.538Z,77.00
2022-10-12T06:17:02.097Z,77.00
2022-10-12T06:18:01.772Z,76.00
2022-10-12T06:19:01.570Z,76.00
2022-10-12T06:20:01.585Z,76.00
2022-10-12T06:21:28.286Z,76.00
2022-10-12T06:22:02.293Z,76.00
2022-10-12T06:23:02.356Z,77.00
2022-10-12T06:24:02.136Z,76.00
2022-10-12T06:25:02.422Z,76.00
2022-10-12T06:26:02.364Z,76.00
2022-10-12T06:27:01.434Z,77.00
2022-10-12T06:28:01.966Z,77.00
2022-10-12T06:29:01.510Z,77.00
2022-10-12T06:30:01.334Z,77.00
2022-10-12T06:31:01.687Z,77.00
2022-10-12T06:32:02.283Z,76.00
2022-10-12T06:33:01.876Z,77.00
2022-10-12T06:34:01.769Z,77.00
2022-10-12T06:35:02.254Z,78.00
2022-10-12T06:36:01.872Z,79.00
2022-10-12T06:37:02.325Z,79.00
2022-10-12T06:38:02.424Z,79.00
2022-10-12T06:39:02.060Z,80.00
2022-10-12T06:40:02.134Z,80.00
2022-10-12T06:41:02.145Z,80.00
2022-10-12T06:42:02.494Z,80.00
2022-10-12T06:43:02.179Z,80.00
2022-10-12T06:44:02.081Z,79.00
2022-10-12T06:45:02.707Z,79.00
2022-10-12T06:46:02.364Z,79.00
2022-10-12T06:47:01.511Z,78.00
2022-10-12T06:48:01.651Z,79.00
2022-10-12T06:49:01.912Z,79.00
2022-10-12T06:50:01.785Z,79.00
2022-10-12T06:51:02.033Z,79.00
2022-10-12T06:52:01.948Z,80.00
2022-10-12T06:53:02.164Z,80.00
2022-10-12T06:54:02.142Z,80.00
2022-10-12T06:55:01.922Z,80.00
2022-10-12T06:56:02.407Z,80.00
2022-10-12T06:57:01.775Z,80.00
2022-10-12T06:58:01.553Z,80.00
2022-10-12T06:59:01.734Z,81.00
2022-10-12T07:00:01.464Z,81.00
2022-10-12T07:01:01.666Z,82.00
2022-10-12T07:02:03.032Z,82.00
2022-10-12T07:03:02.955Z,82.00
2022-10-12T07:04:02.791Z,81.00
2022-10-12T07:05:02.569Z,81.00
2022-10-12T07:06:03.155Z,81.00
2022-10-12T07:07:03.447Z,81.00
2022-10-12T07:08:03.113Z,81.00
2022-10-12T07:09:02.799Z,81.00
2022-10-12T07:10:03.255Z,81.00
2022-10-12T07:11:02.819Z,81.00
2022-10-12T07:12:03.820Z,81.00
2022-10-12T07:13:03.455Z,81.00
2022-10-12T07:14:03.671Z,81.00
2022-10-12T07:15:03.562Z,81.00
2022-10-12T07:16:03.382Z,81.00
2022-10-12T07:17:02.545Z,81.00
2022-10-12T07:18:02.430Z,81.00
2022-10-12T07:19:03.005Z,81.00
2022-10-12T07:20:02.866Z,82.00
2022-10-12T07:21:03.025Z,82.00
2022-10-12T07:22:02.434Z,82.00
2022-10-12T07:23:02.619Z,82.00
2022-10-12T07:24:02.895Z,82.00
2022-10-12T07:25:02.899Z,82.00
2022-10-12T07:26:02.409Z,83.00
2022-10-12T07:27:02.931Z,83.00
2022-10-12T07:28:02.985Z,83.00
2022-10-12T07:29:03.009Z,83.00
2022-10-12T07:30:03.016Z,84.00
2022-10-12T07:31:02.987Z,85.00
2022-10-12T07:32:02.418Z,86.00
2022-10-12T07:33:02.883Z,86.00
2022-10-12T07:34:02.878Z,86.00
2022-10-12T07:35:02.447Z,87.00
2022-10-12T07:36:13.722Z,86.00
2022-10-12T07:37:02.958Z,85.00
2022-10-12T07:38:03.432Z,86.00
2022-10-12T07:39:03.435Z,87.00
2022-10-12T07:40:03.371Z,86.00
2022-10-12T07:41:03.380Z,87.00
2022-10-12T07:42:03.413Z,88.00
2022-10-12T07:43:15.791Z,88.00
2022-10-12T07:44:03.364Z,87.00
2022-10-12T07:45:03.579Z,88.00
2022-10-12T07:46:03.417Z,87.00
2022-10-12T07:47:03.593Z,87.00
2022-10-12T07:48:03.277Z,88.00
2022-10-12T07:49:03.129Z,88.00
2022-10-12T07:50:03.085Z,88.00
2022-10-12T07:51:03.669Z,88.00
2022-10-12T07:52:02.735Z,88.00
2022-10-12T07:53:03.005Z,88.00
2022-10-12T07:54:02.924Z,88.00
2022-10-12T07:55:02.576Z,88.00
2022-10-12T07:56:02.873Z,88.00
2022-10-12T07:57:03.022Z,88.00
2022-10-12T07:58:03.222Z,87.00
2022-10-12T07:59:03.336Z,88.00
2022-10-12T08:00:02.926Z,88.00
2022-10-12T08:01:02.878Z,87.00
2022-10-12T08:02:02.586Z,87.00
2022-10-12T08:03:02.810Z,87.00
2022-10-12T08:04:02.757Z,86.00
2022-10-12T08:05:02.538Z,86.00
2022-10-12T08:06:02.256Z,86.00
2022-10-12T08:07:02.399Z,86.00
2022-10-12T08:08:02.470Z,86.00
2022-10-12T08:09:02.028Z,86.00
2022-10-12T08:10:02.161Z,86.00
2022-10-12T08:11:02.280Z,86.00
2022-10-12T08:12:02.649Z,87.00
2022-10-12T08:13:02.588Z,87.00
2022-10-12T08:14:02.326Z,87.00
2022-10-12T08:15:02.320Z,87.00
2022-10-12T08:16:02.547Z,87.00
2022-10-12T08:17:02.581Z,88.00
2022-10-12T08:18:02.371Z,88.00
2022-10-12T08:19:02.711Z,87.00
2022-10-12T08:20:02.534Z,87.00
2022-10-12T08:21:02.633Z,87.00
2022-10-12T08:22:02.754Z,87.00
2022-10-12T08:23:02.665Z,87.00
2022-10-12T08:24:02.918Z,86.00
2022-10-12T08:25:02.905Z,86.00
2022-10-12T08:26:02.729Z,86.00
2022-10-12T08:27:02.179Z,85.00
2022-10-12T08:28:01.762Z,85.00
2022-10-12T08:29:01.976Z,85.00
2022-10-12T08:30:01.938Z,85.00
2022-10-12T08:31:02.118Z,85.00
2022-10-12T08:32:02.596Z,85.00
2022-10-12T08:33:05.751Z,85.00
2022-10-12T08:34:02.338Z,85.00
2022-10-12T08:35:02.698Z,85.00
2022-10-12T08:36:02.595Z,85.00
2022-10-12T08:37:02.271Z,85.00
2022-10-12T08:38:02.079Z,84.00
2022-10-12T08:39:01.965Z,84.00
2022-10-12T08:40:03.630Z,82.00
2022-10-12T08:41:01.865Z,83.00
2022-10-12T08:42:02.815Z,82.00
2022-10-12T08:43:02.947Z,82.00
2022-10-12T08:44:03.082Z,82.00
2022-10-12T08:45:02.532Z,82.00
2022-10-12T08:46:02.903Z,81.00
2022-10-12T08:47:03.072Z,82.00
2022-10-12T08:48:02.514Z,82.00
2022-10-12T08:49:03.145Z,82.00
2022-10-12T08:50:02.494Z,82.00
2022-10-12T08:51:02.792Z,82.00
2022-10-12T08:52:02.550Z,82.00
2022-10-12T08:53:02.480Z,82.00
2022-10-12T08:54:02.211Z,81.00
2022-10-12T08:55:02.541Z,81.00
2022-10-12T08:56:02.536Z,80.00
2022-10-12T08:57:02.194Z,80.00
2022-10-12T08:58:02.175Z,79.00
2022-10-12T08:59:02.325Z,78.00
2022-10-12T09:00:02.085Z,78.00
2022-10-12T09:01:02.282Z,78.00
2022-10-12T09:02:02.630Z,77.00
2022-10-12T09:03:02.343Z,78.00
2022-10-12T09:04:02.280Z,78.00
2022-10-12T09:05:02.237Z,77.00
2022-10-12T09:06:02.193Z,77.00
2022-10-12T09:07:02.318Z,77.00
2022-10-12T09:08:02.384Z,78.00
2022-10-12T09:09:02.675Z,78.00
2022-10-12T09:10:02.227Z,78.00
2022-10-12T09:11:02.657Z,78.00
2022-10-12T09:12:02.878Z,78.00
2022-10-12T09:13:02.982Z,78.00
2022-10-12T09:14:02.694Z,77.00
2022-10-12T09:15:02.995Z,77.00
2022-10-12T09:16:02.475Z,78.00
2022-10-12T09:17:02.963Z,78.00
2022-10-12T09:18:02.986Z,75.00
2022-10-12T09:19:03.009Z,75.00
2022-10-12T09:20:03.100Z,76.00
2022-10-12T09:21:03.180Z,76.00
2022-10-12T09:22:03.270Z,75.00
2022-10-12T09:23:02.927Z,75.00
2022-10-12T09:24:03.027Z,75.00
2022-10-12T09:25:03.131Z,73.00
2022-10-12T09:26:03.139Z,73.00
2022-10-12T09:27:02.345Z,74.00
2022-10-12T09:28:02.431Z,74.00
2022-10-12T09:29:02.672Z,74.00
2022-10-12T09:30:02.481Z,75.00
2022-10-12T09:31:02.589Z,73.00
2022-10-12T09:32:02.850Z,73.00
2022-10-12T09:33:03.265Z,73.00
2022-10-12T09:34:03.084Z,71.00
2022-10-12T09:35:02.852Z,72.00
2022-10-12T09:36:02.719Z,71.00
2022-10-12T09:37:02.478Z,70.00
2022-10-12T09:38:02.218Z,71.00
2022-10-12T09:39:02.343Z,70.00
2022-10-12T09:40:02.000Z,70.00
2022-10-12T09:41:02.178Z,70.00
2022-10-12T09:42:02.520Z,70.00
2022-10-12T09:43:02.407Z,71.00
2022-10-12T09:44:02.439Z,71.00
2022-10-12T09:45:02.614Z,71.00
2022-10-12T09:46:02.648Z,69.00
2022-10-12T09:47:03.417Z,69.00
2022-10-12T09:48:03.194Z,68.00
2022-10-12T09:49:03.234Z,68.00
2022-10-12T09:50:03.023Z,68.00
2022-10-12T09:51:03.315Z,68.00
2022-10-12T09:52:02.733Z,68.00
2022-10-12T09:53:02.419Z,68.00
2022-10-12T09:54:02.427Z,68.00
2022-10-12T09:55:04.988Z,68.00
2022-10-12T09:56:02.551Z,68.00
2022-10-12T09:57:03.037Z,68.00
2022-10-12T09:58:03.111Z,67.00
2022-10-12T09:59:03.107Z,67.00
2022-10-12T10:00:03.020Z,67.00
2022-10-12T10:01:02.703Z,68.00
2022-10-12T10:02:02.321Z,68.00
2022-10-12T10:03:02.429Z,69.00
2022-10-12T10:04:02.286Z,69.00
2022-10-12T10:05:02.299Z,69.00
2022-10-12T10:06:02.315Z,67.00
2022-10-12T10:07:02.999Z,67.00
2022-10-12T10:08:02.448Z,68.00
2022-10-12T10:09:02.686Z,70.00
2022-10-12T10:10:02.786Z,70.00
2022-10-12T10:11:02.857Z,69.00
2022-10-12T10:12:01.896Z,69.00
2022-10-12T10:13:01.832Z,68.00
2022-10-12T10:14:02.205Z,67.00
2022-10-12T10:15:01.836Z,66.00
2022-10-12T10:16:01.992Z,66.00
2022-10-12T10:17:02.592Z,65.00
2022-10-12T10:18:02.667Z,66.00
2022-10-12T10:19:02.778Z,66.00
2022-10-12T10:20:02.872Z,65.00
2022-10-12T10:21:02.959Z,66.00
2022-10-12T10:22:01.997Z,65.00
2022-10-12T10:23:02.048Z,66.00
2022-10-12T10:24:02.283Z,66.00
2022-10-12T10:25:01.916Z,66.00
2022-10-12T10:26:02.412Z,65.00
2022-10-12T10:27:02.619Z,65.00
2022-10-12T10:28:02.655Z,66.00
2022-10-12T10:29:02.876Z,66.00
2022-10-12T10:30:25.518Z,64.00
2022-10-12T10:31:03.099Z,63.00
2022-10-12T10:32:02.781Z,64.00
2022-10-12T10:33:02.761Z,63.00
2022-10-12T10:34:02.849Z,63.00
2022-10-12T10:35:02.879Z,64.00
2022-10-12T10:36:03.240Z,64.00
2022-10-12T10:37:02.082Z,65.00
2022-10-12T10:38:01.863Z,64.00
2022-10-12T10:39:02.042Z,64.00
2022-10-12T10:40:02.464Z,65.00
2022-10-12T10:41:02.423Z,65.00
2022-10-12T10:42:02.194Z,65.00
2022-10-12T10:43:02.578Z,65.00
2022-10-12T10:44:02.273Z,63.00
2022-10-12T10:45:02.117Z,63.00
2022-10-12T10:46:02.112Z,62.00
2022-10-12T10:47:02.456Z,63.00
2022-10-12T10:48:02.622Z,64.00
2022-10-12T10:49:02.820Z,65.00
2022-10-12T10:50:02.307Z,63.00
2022-10-12T10:51:02.897Z,63.00
2022-10-12T10:52:02.739Z,63.00
2022-10-12T10:53:03.082Z,61.00
2022-10-12T10:54:03.004Z,62.00
2022-10-12T10:55:02.798Z,63.00
2022-10-12T10:56:02.761Z,64.00
2022-10-12T10:57:02.484Z,63.00
2022-10-12T10:58:02.862Z,63.00
2022-10-12T10:59:06.442Z,61.00
2022-10-12T11:00:33.795Z,62.00
2022-10-12T11:01:02.865Z,63.00
2022-10-12T11:02:03.009Z,63.00
2022-10-12T11:03:03.049Z,61.00
2022-10-12T11:04:02.836Z,61.00
2022-10-12T11:05:03.053Z,62.00
2022-10-12T11:06:03.115Z,61.00
2022-10-12T11:07:02.863Z,60.00
2022-10-12T11:08:02.582Z,59.00
2022-10-12T11:09:02.523Z,59.00
2022-10-12T11:10:02.512Z,60.00
2022-10-12T11:11:02.622Z,62.00
2022-10-12T11:12:02.983Z,62.00
2022-10-12T11:13:03.004Z,61.00
2022-10-12T11:14:02.587Z,61.00
2022-10-12T11:15:02.978Z,61.00
2022-10-12T11:16:03.084Z,59.00
2022-10-12T11:17:02.548Z,60.00
2022-10-12T11:18:02.665Z,61.00
2022-10-12T11:19:02.780Z,62.00
2022-10-12T11:20:02.544Z,61.00
2022-10-12T11:21:02.636Z,60.00
2022-10-12T11:22:02.556Z,60.00
2022-10-12T11:23:02.886Z,59.00
2022-10-12T11:24:03.028Z,59.00
2022-10-12T11:25:02.587Z,59.00
2022-10-12T11:26:02.733Z,59.00
2022-10-12T11:27:03.064Z,60.00
2022-10-12T11:28:03.325Z,57.00
2022-10-12T11:29:02.981Z,57.00
2022-10-12T11:30:09.426Z,57.00
2022-10-12T11:31:02.965Z,58.00
2022-10-12T11:32:02.652Z,59.00
2022-10-12T11:33:02.756Z,58.00
2022-10-12T11:34:02.548Z,55.00
2022-10-12T11:35:02.425Z,56.00
2022-10-12T11:36:02.518Z,55.00
2022-10-12T11:37:20.088Z,56.00
2022-10-12T11:38:03.539Z,55.00
2022-10-12T11:39:06.915Z,57.00
2022-10-12T11:40:03.182Z,58.00
2022-10-12T11:41:19.139Z,56.00
2022-10-12T11:42:20.969Z,54.00
2022-10-12T11:43:02.515Z,56.00
2022-10-12T11:44:03.097Z,56.00
2022-10-12T11:45:02.921Z,56.00
2022-10-12T11:46:02.780Z,56.00
2022-10-12T11:47:03.084Z,56.00
2022-10-12T11:48:02.794Z,54.00
2022-10-12T11:49:02.947Z,54.00
2022-10-12T11:50:03.154Z,55.00
2022-10-12T11:51:04.432Z,54.00
2022-10-12T11:52:03.105Z,53.00
2022-10-12T11:53:03.178Z,53.00
2022-10-12T11:54:03.256Z,54.00
2022-10-12T11:55:03.060Z,54.00
2022-10-12T11:56:03.205Z,53.00
2022-10-12T11:57:02.494Z,52.00
2022-10-12T11:58:02.074Z,53.00
2022-10-12T11:59:02.469Z,52.00
2022-10-12T12:00:02.414Z,50.00
2022-10-12T12:01:02.320Z,52.00
2022-10-12T12:02:03.351Z,52.00
2022-10-12T12:03:03.551Z,56.00
2022-10-12T12:04:22.594Z,56.00
2022-10-12T12:05:03.174Z,54.00
2022-10-12T12:06:03.362Z,51.00
2022-10-12T12:07:03.287Z,52.00
2022-10-12T12:08:02.863Z,50.00
2022-10-12T12:09:02.919Z,51.00
2022-10-12T12:10:02.935Z,53.00
2022-10-12T12:11:03.003Z,52.00
2022-10-12T12:12:02.939Z,49.00
2022-10-12T12:13:02.381Z,49.00
2022-10-12T12:14:02.618Z,50.00
2022-10-12T12:15:02.419Z,49.00
2022-10-12T12:16:03.057Z,50.00
2022-10-12T12:17:02.982Z,49.00
2022-10-12T12:18:02.870Z,47.00
2022-10-12T12:19:03.017Z,49.00
2022-10-12T12:20:02.433Z,49.00
2022-10-12T12:21:03.015Z,49.00
2022-10-12T12:22:03.156Z,49.00
2022-10-12T12:23:02.762Z,47.00
2022-10-12T12:24:02.655Z,47.00
2022-10-12T12:25:03.125Z,47.00
2022-10-12T12:26:02.957Z,48.00
2022-10-12T12:27:03.760Z,49.00
2022-10-12T12:28:03.645Z,47.00
2022-10-12T12:29:03.748Z,48.00
2022-10-12T12:30:03.790Z,49.00
2022-10-12T12:31:03.640Z,48.00
2022-10-12T12:32:03.255Z,49.00
2022-10-12T12:33:02.742Z,47.00
2022-10-12T12:34:03.148Z,48.00
2022-10-12T12:35:02.647Z,47.00
2022-10-12T12:36:02.670Z,48.00
2022-10-12T12:37:03.740Z,48.00
2022-10-12T12:38:03.729Z,49.00
2022-10-12T12:39:03.397Z,48.00
2022-10-12T12:40:03.761Z,48.00
2022-10-12T12:41:03.798Z,48.00
2022-10-12T12:42:03.810Z,48.00
2022-10-12T12:43:03.650Z,49.00
2022-10-12T12:44:03.356Z,49.00
2022-10-12T12:45:03.457Z,47.00
2022-10-12T12:46:03.615Z,46.00
2022-10-12T12:47:05.958Z,47.00
2022-10-12T12:48:06.269Z,48.00
2022-10-12T12:49:03.050Z,49.00
2022-10-12T12:50:03.023Z,48.00
2022-10-12T12:51:02.878Z,47.00
2022-10-12T12:52:02.968Z,46.00